createdAt,value
2022-12-14T00:00:38.347Z,90.80
2022-12-14T00:01:39.186Z,91.11
2022-12-14T00:02:40.129Z,91.74
2022-12-14T00:03:40.554Z,91.01
2022-12-14T00:04:41.408Z,89.86
2022-12-14T00:05:42.274Z,89.43
2022-12-14T00:06:43.127Z,89.54
2022-12-14T00:07:44.227Z,89.64
2022-12-14T00:08:44.927Z,89.75
2022-12-14T00:09:45.781Z,89.79
2022-12-14T00:10:46.646Z,89.79
2022-12-14T00:11:47.514Z,89.94
2022-12-14T00:12:48.389Z,89.83
2022-12-14T00:13:49.263Z,90.36
2022-12-14T00:14:50.101Z,89.94
2022-12-14T00:15:50.990Z,89.83
2022-12-14T00:16:51.838Z,89.51
2022-12-14T00:17:52.727Z,89.83
2022-12-14T00:18:53.584Z,89.72
2022-12-14T00:19:54.471Z,89.41
2022-12-14T00:20:55.309Z,89.62
2022-12-14T00:21:56.172Z,89.51
2022-12-14T00:22:57.063Z,89.51
2022-12-14T00:23:57.940Z,89.41
2022-12-14T00:24:58.797Z,89.62
2022-12-14T00:25:59.648Z,89.51
2022-12-14T00:27:00.505Z,89.76
2022-12-14T00:28:01.724Z,89.94
2022-12-14T00:29:02.159Z,89.72
2022-12-14T00:30:02.958Z,89.72
2022-12-14T00:31:03.898Z,89.76
2022-12-14T00:32:04.756Z,89.94
2022-12-14T00:33:05.590Z,89.94
2022-12-14T00:34:06.444Z,89.72
2022-12-14T00:35:07.300Z,89.83
2022-12-14T00:36:08.160Z,89.72
2022-12-14T00:37:09.026Z,89.72
2022-12-14T00:38:09.892Z,89.41
2022-12-14T00:39:10.747Z,89.41
2022-12-14T00:40:11.604Z,89.41
2022-12-14T00:41:12.476Z,89.30
2022-12-14T00:42:13.326Z,89.41
2022-12-14T00:43:14.191Z,89.62
2022-12-14T00:44:15.073Z,89.76
2022-12-14T00:45:15.875Z,89.83
2022-12-14T00:46:16.827Z,89.83
2022-12-14T00:47:17.688Z,89.72
2022-12-14T00:48:18.719Z,89.51
2022-12-14T00:49:19.075Z,89.72
2022-12-14T00:50:19.948Z,89.83
2022-12-14T00:51:20.810Z,89.83
2022-12-14T00:52:21.666Z,90.04
2022-12-14T00:53:22.562Z,89.62
2022-12-14T00:54:23.236Z,89.30
2022-12-14T00:55:24.084Z,89.51
2022-12-14T00:56:24.948Z,89.41
2022-12-14T00:57:25.804Z,89.30
2022-12-14T00:58:27.005Z,89.09
2022-12-14T00:59:27.555Z,89.20
2022-12-14T01:00:28.353Z,89.30
2022-12-14T01:01:29.310Z,88.89
2022-12-14T01:02:30.322Z,89.09
2022-12-14T01:03:31.467Z,89.09
2022-12-14T01:04:31.586Z,88.89
2022-12-14T01:05:32.442Z,88.99
2022-12-14T01:06:33.305Z,88.99
2022-12-14T01:07:34.150Z,89.20
2022-12-14T01:08:35.865Z,89.30
2022-12-14T01:09:35.593Z,89.30
2022-12-14T01:10:36.452Z,89.56
2022-12-14T01:11:37.322Z,89.76
2022-12-14T01:12:38.184Z,89.98
2022-12-14T01:13:39.048Z,89.87
2022-12-14T01:14:39.921Z,89.76
2022-12-14T01:15:40.837Z,89.56
2022-12-14T01:16:41.652Z,89.56
2022-12-14T01:17:42.545Z,89.20
2022-12-14T01:18:43.722Z,89.09
2022-12-14T01:19:44.064Z,88.99
2022-12-14T01:20:45.830Z,87.93
2022-12-14T01:21:45.695Z,87.62
2022-12-14T01:22:46.573Z,87.20
2022-12-14T01:23:47.714Z,87.41
2022-12-14T01:24:48.081Z,87.41
2022-12-14T01:25:49.034Z,87.30
2022-12-14T01:26:49.871Z,87.41
2022-12-14T01:27:50.727Z,87.41
2022-12-14T01:28:51.709Z,86.99
2022-12-14T01:29:52.587Z,86.68
2022-12-14T01:30:53.427Z,86.68
2022-12-14T01:31:54.259Z,86.36
2022-12-14T01:32:55.136Z,85.94
2022-12-14T01:33:55.977Z,85.58
2022-12-14T01:34:56.835Z,85.58
2022-12-14T01:35:57.689Z,86.21
2022-12-14T01:36:58.566Z,86.85
2022-12-14T01:37:59.423Z,88.21
2022-12-14T01:39:00.708Z,87.37
2022-12-14T01:40:01.062Z,87.48
2022-12-14T01:41:01.920Z,87.37
2022-12-14T01:42:02.778Z,87.68
2022-12-14T01:43:03.632Z,88.53
2022-12-14T01:44:04.704Z,88.63
2022-12-14T01:45:05.120Z,88.10
2022-12-14T01:46:06.007Z,87.05
2022-12-14T01:47:12.403Z,87.48
2022-12-14T01:48:08.637Z,87.62
2022-12-14T01:49:08.707Z,87.62
2022-12-14T01:50:09.058Z,86.99
2022-12-14T01:51:09.914Z,86.68
2022-12-14T01:52:10.769Z,87.73
2022-12-14T01:53:11.651Z,88.21
2022-12-14T01:54:12.726Z,87.68
2022-12-14T01:55:13.078Z,87.16
2022-12-14T01:56:13.946Z,86.95
2022-12-14T01:57:14.805Z,86.85
2022-12-14T01:58:15.669Z,86.74
2022-12-14T01:59:16.702Z,87.05
2022-12-14T02:00:17.085Z,86.95
2022-12-14T02:01:18.006Z,86.85
2022-12-14T02:02:18.505Z,86.74
2022-12-14T02:03:18.927Z,86.85
2022-12-14T02:04:19.462Z,86.95
2022-12-14T02:05:20.350Z,86.85
2022-12-14T02:06:21.206Z,87.68
2022-12-14T02:07:22.071Z,86.85
2022-12-14T02:08:22.943Z,86.95
2022-12-14T02:09:23.799Z,87.27
2022-12-14T02:10:24.661Z,87.05
2022-12-14T02:11:25.522Z,86.95
2022-12-14T02:12:26.380Z,87.37
2022-12-14T02:13:27.522Z,87.20
2022-12-14T02:14:28.208Z,87.41
2022-12-14T02:15:29.087Z,87.62
2022-12-14T02:16:30.004Z,87.83
2022-12-14T02:17:30.873Z,87.83
2022-12-14T02:18:31.753Z,88.46
2022-12-14T02:19:32.699Z,88.25
2022-12-14T02:20:33.553Z,88.35
2022-12-14T02:21:34.417Z,88.67
2022-12-14T02:22:35.269Z,89.30
2022-12-14T02:23:36.141Z,89.87
2022-12-14T02:24:37.195Z,90.29
2022-12-14T02:25:37.550Z,90.92
2022-12-14T02:26:38.407Z,90.92
2022-12-14T02:27:39.272Z,90.29
2022-12-14T02:28:40.149Z,89.03
2022-12-14T02:29:41.197Z,88.40
2022-12-14T02:30:41.576Z,88.29
2022-12-14T02:31:42.422Z,88.50
2022-12-14T02:32:43.235Z,88.57
2022-12-14T02:33:44.119Z,88.89
2022-12-14T02:34:44.959Z,88.57
2022-12-14T02:35:45.814Z,88.40
2022-12-14T02:36:46.671Z,89.24
2022-12-14T02:37:49.155Z,89.14
2022-12-14T02:38:48.109Z,89.45
2022-12-14T02:39:49.191Z,90.08
2022-12-14T02:40:49.554Z,90.08
2022-12-14T02:41:50.413Z,90.82
2022-12-14T02:42:51.261Z,90.61
2022-12-14T02:43:52.118Z,90.40
2022-12-14T02:44:53.210Z,90.29
2022-12-14T02:45:53.583Z,90.08
2022-12-14T02:46:54.403Z,89.98
2022-12-14T02:47:55.215Z,89.87
2022-12-14T02:48:56.094Z,89.45
2022-12-14T02:49:56.941Z,88.18
2022-12-14T02:50:57.797Z,87.66
2022-12-14T02:51:58.656Z,87.87
2022-12-14T02:52:59.510Z,88.60
2022-12-14T02:54:00.373Z,88.82
2022-12-14T02:55:01.259Z,88.82
2022-12-14T02:56:02.111Z,88.82
2022-12-14T02:57:02.971Z,88.82
2022-12-14T02:58:03.827Z,89.03
2022-12-14T02:59:04.683Z,89.03
2022-12-14T03:00:05.688Z,89.24
2022-12-14T03:01:06.144Z,89.76
2022-12-14T03:02:07.116Z,90.40
2022-12-14T03:03:07.637Z,90.86
2022-12-14T03:04:08.574Z,91.17
2022-12-14T03:05:09.687Z,91.39
2022-12-14T03:06:10.083Z,91.49
2022-12-14T03:07:10.940Z,90.97
2022-12-14T03:08:11.799Z,90.75
2022-12-14T03:09:12.657Z,90.86
2022-12-14T03:10:13.687Z,90.97
2022-12-14T03:11:14.043Z,90.44
2022-12-14T03:12:14.915Z,90.01
2022-12-14T03:13:15.781Z,89.66
2022-12-14T03:14:16.642Z,89.28
2022-12-14T03:15:17.683Z,89.03
2022-12-14T03:16:18.143Z,88.82
2022-12-14T03:17:19.808Z,88.50
2022-12-14T03:18:19.775Z,87.98
2022-12-14T03:19:20.659Z,87.35
2022-12-14T03:20:21.505Z,87.45
2022-12-14T03:21:22.360Z,87.98
2022-12-14T03:22:23.216Z,88.29
2022-12-14T03:23:24.646Z,88.40
2022-12-14T03:24:24.655Z,88.50
2022-12-14T03:25:25.696Z,88.40
2022-12-14T03:26:26.052Z,88.35
2022-12-14T03:27:26.908Z,88.35
2022-12-14T03:28:27.762Z,88.35
2022-12-14T03:29:28.617Z,88.46
2022-12-14T03:30:58.157Z,87.83
2022-12-14T03:31:31.542Z,87.98
2022-12-14T03:32:31.374Z,88.04
2022-12-14T03:33:32.230Z,88.25
2022-12-14T03:34:33.121Z,87.93
2022-12-14T03:35:33.961Z,88.25
2022-12-14T03:36:34.816Z,88.35
2022-12-14T03:37:35.672Z,88.25
2022-12-14T03:38:36.526Z,88.15
2022-12-14T03:39:37.381Z,88.04
2022-12-14T03:40:38.675Z,87.93
2022-12-14T03:41:39.034Z,87.83
2022-12-14T03:42:39.883Z,87.83
2022-12-14T03:43:40.740Z,87.83
2022-12-14T03:44:48.920Z,87.73
2022-12-14T03:45:43.425Z,87.83
2022-12-14T03:46:43.256Z,87.93
2022-12-14T03:47:44.040Z,87.45
2022-12-14T03:48:44.896Z,87.87
2022-12-14T03:49:45.771Z,88.29
2022-12-14T03:50:46.354Z,88.29
2022-12-14T03:51:47.214Z,88.50
2022-12-14T03:52:48.068Z,88.60
2022-12-14T03:53:48.924Z,88.50
2022-12-14T03:54:49.779Z,88.50
2022-12-14T03:55:50.674Z,88.29
2022-12-14T03:56:53.333Z,88.60
2022-12-14T03:57:52.287Z,88.18
2022-12-14T03:58:57.176Z,88.18
2022-12-14T03:59:53.762Z,88.50
2022-12-14T04:00:54.669Z,88.50
2022-12-14T04:01:55.637Z,88.60
2022-12-14T04:02:56.127Z,88.50
2022-12-14T04:03:56.962Z,88.50
2022-12-14T04:04:57.837Z,88.92
2022-12-14T04:05:58.677Z,88.82
2022-12-14T04:06:59.534Z,88.71
2022-12-14T04:08:00.387Z,88.82
2022-12-14T04:09:01.242Z,89.03
2022-12-14T04:10:02.100Z,89.03
2022-12-14T04:11:02.963Z,88.92
2022-12-14T04:12:03.817Z,88.82
2022-12-14T04:13:04.672Z,88.82
2022-12-14T04:14:05.525Z,88.92
2022-12-14T04:15:06.393Z,89.28
2022-12-14T04:16:07.310Z,89.07
2022-12-14T04:17:08.116Z,89.28
2022-12-14T04:18:08.893Z,89.59
2022-12-14T04:19:09.748Z,89.39
2022-12-14T04:20:10.630Z,89.49
2022-12-14T04:21:11.470Z,89.24
2022-12-14T04:22:12.323Z,89.24
2022-12-14T04:23:13.179Z,89.34
2022-12-14T04:24:14.031Z,89.24
2022-12-14T04:25:14.893Z,89.14
2022-12-14T04:26:15.768Z,89.03
2022-12-14T04:27:16.623Z,89.03
2022-12-14T04:28:17.477Z,89.24
2022-12-14T04:29:18.331Z,88.92
2022-12-14T04:30:19.186Z,88.60
2022-12-14T04:31:20.213Z,88.92
2022-12-14T04:32:21.096Z,89.24
2022-12-14T04:33:21.895Z,88.92
2022-12-14T04:34:22.750Z,87.98
2022-12-14T04:35:23.636Z,88.12
2022-12-14T04:36:24.665Z,88.12
2022-12-14T04:37:25.022Z,88.23
2022-12-14T04:38:25.879Z,88.23
2022-12-14T04:39:26.740Z,88.02
2022-12-14T04:40:27.593Z,87.81
2022-12-14T04:41:28.663Z,87.91
2022-12-14T04:42:29.027Z,87.91
2022-12-14T04:43:30.115Z,87.91
2022-12-14T04:44:30.624Z,88.02
2022-12-14T04:45:31.528Z,88.02
2022-12-14T04:46:35.171Z,87.91
2022-12-14T04:47:33.936Z,87.81
2022-12-14T04:48:33.759Z,87.81
2022-12-14T04:49:34.731Z,87.91
2022-12-14T04:50:35.535Z,88.12
2022-12-14T04:51:36.380Z,88.23
2022-12-14T04:52:37.261Z,87.38
2022-12-14T04:53:38.121Z,87.18
2022-12-14T04:54:38.989Z,87.18
2022-12-14T04:55:39.854Z,87.49
2022-12-14T04:56:41.180Z,87.81
2022-12-14T04:57:41.533Z,87.81
2022-12-14T04:58:42.390Z,87.81
2022-12-14T04:59:43.262Z,87.91
2022-12-14T05:00:44.218Z,87.91
2022-12-14T05:01:45.265Z,87.81
2022-12-14T05:02:46.034Z,87.60
2022-12-14T05:03:46.884Z,87.91
2022-12-14T05:04:47.738Z,88.12
2022-12-14T05:05:48.616Z,88.02
2022-12-14T05:06:49.463Z,88.02
2022-12-14T05:07:50.319Z,88.02
2022-12-14T05:08:51.174Z,88.12
2022-12-14T05:09:52.028Z,88.23
2022-12-14T05:10:52.883Z,87.91
2022-12-14T05:11:54.823Z,87.81
2022-12-14T05:12:54.702Z,87.81
2022-12-14T05:13:55.565Z,87.70
2022-12-14T05:14:56.422Z,87.49
2022-12-14T05:15:57.290Z,87.70
2022-12-14T05:17:01.288Z,87.66
2022-12-14T05:17:58.794Z,87.76
2022-12-14T05:18:59.595Z,87.98
2022-12-14T05:20:00.451Z,88.92
2022-12-14T05:21:01.329Z,90.08
2022-12-14T05:22:02.175Z,90.29
2022-12-14T05:23:03.031Z,90.40
2022-12-14T05:24:03.886Z,90.40
2022-12-14T05:25:04.747Z,90.50
2022-12-14T05:26:05.599Z,90.71
2022-12-14T05:27:06.471Z,90.08
2022-12-14T05:28:07.324Z,90.19
2022-12-14T05:29:08.181Z,90.82
2022-12-14T05:30:09.032Z,91.55
2022-12-14T05:31:09.926Z,91.35
2022-12-14T05:32:10.755Z,91.13
2022-12-14T05:33:11.629Z,91.13
2022-12-14T05:34:12.421Z,91.03
2022-12-14T05:35:13.286Z,90.82
2022-12-14T05:36:14.177Z,91.03
2022-12-14T05:37:18.478Z,90.82
2022-12-14T05:38:15.941Z,90.29
2022-12-14T05:39:16.804Z,90.08
2022-12-14T05:40:17.661Z,90.29
2022-12-14T05:41:18.525Z,90.08
2022-12-14T05:42:19.648Z,90.08
2022-12-14T05:43:20.004Z,90.08
2022-12-14T05:44:20.870Z,89.98
2022-12-14T05:45:21.727Z,89.76
2022-12-14T05:46:22.651Z,89.66
2022-12-14T05:47:23.510Z,89.30
2022-12-14T05:48:24.387Z,88.60
2022-12-14T05:49:25.175Z,88.46
2022-12-14T05:50:26.028Z,88.67
2022-12-14T05:51:26.912Z,89.56
2022-12-14T05:52:27.763Z,89.76
2022-12-14T05:53:29.162Z,89.87
2022-12-14T05:54:29.561Z,88.71
2022-12-14T05:55:30.417Z,88.60
2022-12-14T05:56:31.283Z,88.71
2022-12-14T05:57:32.661Z,87.66
2022-12-14T05:58:33.020Z,87.66
2022-12-14T05:59:33.885Z,88.50
2022-12-14T06:00:34.744Z,88.40
2022-12-14T06:01:35.653Z,88.82
2022-12-14T06:02:36.699Z,89.72
2022-12-14T06:03:37.022Z,91.20
2022-12-14T06:04:37.883Z,90.88
2022-12-14T06:05:38.785Z,91.45
2022-12-14T06:06:39.675Z,92.08
2022-12-14T06:07:40.504Z,92.40
2022-12-14T06:08:41.365Z,92.61
2022-12-14T06:09:42.212Z,90.71
2022-12-14T06:10:43.076Z,91.55
2022-12-14T06:11:43.928Z,92.50
2022-12-14T06:12:45.139Z,91.87
2022-12-14T06:13:45.501Z,91.35
2022-12-14T06:14:46.348Z,91.45
2022-12-14T06:15:47.239Z,91.66
2022-12-14T06:16:48.070Z,91.13
2022-12-14T06:17:48.932Z,92.08
2022-12-14T06:18:49.813Z,92.71
2022-12-14T06:19:50.695Z,93.55
2022-12-14T06:20:51.467Z,93.45
2022-12-14T06:21:52.356Z,93.98
2022-12-14T06:22:53.202Z,93.98
2022-12-14T06:23:54.055Z,93.98
2022-12-14T06:24:55.021Z,94.08
2022-12-14T06:25:55.878Z,93.45
2022-12-14T06:26:56.733Z,93.45
2022-12-14T06:27:57.652Z,93.13
2022-12-14T06:28:58.506Z,93.13
2022-12-14T06:29:59.364Z,93.03
2022-12-14T06:31:00.254Z,92.54
2022-12-14T06:32:01.084Z,92.86
2022-12-14T06:33:02.134Z,93.13
2022-12-14T06:34:02.507Z,93.13
2022-12-14T06:35:03.300Z,92.40
2022-12-14T06:36:04.173Z,91.87
2022-12-14T06:37:05.046Z,91.87
2022-12-14T06:38:05.893Z,92.50
2022-12-14T06:39:06.746Z,91.87
2022-12-14T06:40:07.623Z,91.77
2022-12-14T06:41:08.479Z,91.87
2022-12-14T06:42:09.332Z,91.66
2022-12-14T06:43:10.197Z,91.45
2022-12-14T06:44:11.058Z,92.08
2022-12-14T06:45:11.906Z,92.50
2022-12-14T06:46:15.556Z,92.71
2022-12-14T06:47:13.751Z,92.50
2022-12-14T06:48:14.648Z,92.04
2022-12-14T06:49:15.529Z,92.46
2022-12-14T06:50:16.311Z,91.83
2022-12-14T06:51:17.176Z,91.62
2022-12-14T06:52:20.812Z,91.30
2022-12-14T06:53:19.799Z,90.14
2022-12-14T06:54:19.649Z,88.78
2022-12-14T06:55:20.503Z,88.60
2022-12-14T06:56:21.360Z,88.35
2022-12-14T06:57:22.215Z,88.15
2022-12-14T06:58:25.760Z,87.93
2022-12-14T06:59:24.851Z,88.04
2022-12-14T07:00:24.717Z,88.25
2022-12-14T07:01:25.727Z,88.35
2022-12-14T07:02:26.382Z,89.94
2022-12-14T07:03:27.226Z,92.46
2022-12-14T07:04:27.309Z,92.92
2022-12-14T07:05:28.123Z,92.88
2022-12-14T07:06:28.978Z,93.03
2022-12-14T07:07:29.854Z,92.92
2022-12-14T07:08:30.700Z,93.03
2022-12-14T07:09:31.556Z,93.03
2022-12-14T07:10:32.409Z,93.19
2022-12-14T07:11:33.263Z,92.67
2022-12-14T07:12:34.118Z,92.88
2022-12-14T07:13:34.981Z,93.24
2022-12-14T07:14:35.835Z,93.45
2022-12-14T07:15:36.762Z,93.34
2022-12-14T07:16:37.566Z,93.34
2022-12-14T07:17:38.424Z,93.55
2022-12-14T07:18:39.282Z,93.76
2022-12-14T07:19:40.168Z,93.76
2022-12-14T07:20:40.971Z,93.87
2022-12-14T07:21:41.829Z,93.55
2022-12-14T07:22:42.740Z,93.87
2022-12-14T07:23:44.621Z,93.66
2022-12-14T07:24:43.989Z,93.24
2022-12-14T07:25:44.854Z,93.34
2022-12-14T07:26:45.585Z,93.34
2022-12-14T07:27:46.439Z,93.24
2022-12-14T07:28:47.314Z,92.92
2022-12-14T07:29:48.176Z,92.71
2022-12-14T07:30:49.074Z,92.61
2022-12-14T07:31:49.893Z,92.61
2022-12-14T07:32:50.749Z,93.24
2022-12-14T07:33:52.120Z,92.92
2022-12-14T07:34:52.496Z,92.71
2022-12-14T07:35:53.276Z,92.50
2022-12-14T07:36:54.142Z,92.08
2022-12-14T07:37:55.018Z,91.77
2022-12-14T07:38:56.153Z,92.19
2022-12-14T07:39:56.488Z,92.29
2022-12-14T07:40:57.350Z,92.50
2022-12-14T07:41:58.204Z,92.25
2022-12-14T07:42:59.059Z,92.35
2022-12-14T07:43:59.923Z,92.25
2022-12-14T07:45:00.780Z,92.14
2022-12-14T07:46:01.684Z,92.04
2022-12-14T07:47:02.498Z,91.93
2022-12-14T07:48:03.350Z,92.14
2022-12-14T07:49:04.618Z,92.42
2022-12-14T07:50:05.009Z,92.84
2022-12-14T07:51:05.784Z,92.31
2022-12-14T07:52:06.638Z,90.78
2022-12-14T07:53:07.517Z,90.78
2022-12-14T07:54:08.613Z,91.58
2022-12-14T07:55:08.973Z,91.36
2022-12-14T07:56:09.826Z,91.16
2022-12-14T07:57:10.682Z,91.36
2022-12-14T07:58:11.536Z,91.58
2022-12-14T07:59:12.655Z,91.58
2022-12-14T08:00:13.012Z,91.16
2022-12-14T08:01:13.966Z,90.94
2022-12-14T08:02:14.998Z,90.94
2022-12-14T08:03:15.357Z,90.84
2022-12-14T08:04:16.309Z,90.63
2022-12-14T08:05:17.168Z,90.73
2022-12-14T08:06:17.981Z,90.73
2022-12-14T08:07:18.836Z,90.42
2022-12-14T08:08:19.709Z,90.31
2022-12-14T08:09:20.556Z,89.89
2022-12-14T08:10:21.429Z,90.11
2022-12-14T08:11:22.282Z,90.17
2022-12-14T08:12:23.130Z,90.31
2022-12-14T08:13:23.985Z,90.21
2022-12-14T08:14:25.109Z,90.21
2022-12-14T08:15:25.505Z,90.42
2022-12-14T08:16:26.491Z,90.21
2022-12-14T08:17:27.310Z,90.31
2022-12-14T08:18:28.165Z,91.16
2022-12-14T08:19:29.050Z,90.73
2022-12-14T08:20:29.933Z,91.05
2022-12-14T08:21:30.757Z,90.80
2022-12-14T08:22:31.620Z,90.59
2022-12-14T08:23:33.014Z,90.48
2022-12-14T08:24:33.631Z,90.27
2022-12-14T08:25:33.983Z,89.32
2022-12-14T08:26:35.968Z,89.12
2022-12-14T08:27:35.473Z,89.22
2022-12-14T08:28:36.352Z,89.12
2022-12-14T08:29:37.219Z,89.43
2022-12-14T08:30:38.072Z,89.12
2022-12-14T08:31:38.991Z,89.32
2022-12-14T08:32:39.781Z,89.43
2022-12-14T08:33:40.643Z,89.12
2022-12-14T08:34:41.505Z,89.18
2022-12-14T08:35:42.384Z,88.87
2022-12-14T08:36:43.208Z,89.18
2022-12-14T08:37:47.501Z,89.29
2022-12-14T08:38:44.597Z,89.12
2022-12-14T08:39:49.443Z,89.79
2022-12-14T08:40:45.946Z,90.42
2022-12-14T08:41:46.798Z,89.89
2022-12-14T08:42:47.654Z,90.00
2022-12-14T08:43:48.509Z,90.00
2022-12-14T08:44:49.651Z,90.53
2022-12-14T08:45:49.990Z,90.31
2022-12-14T08:46:50.897Z,90.06
2022-12-14T08:47:51.757Z,89.96
2022-12-14T08:48:52.642Z,89.54
2022-12-14T08:49:53.467Z,89.18
2022-12-14T08:50:54.341Z,89.01
2022-12-14T08:51:55.173Z,89.32
2022-12-14T08:52:56.031Z,89.54
2022-12-14T08:53:56.924Z,89.64
2022-12-14T08:54:58.102Z,89.32
2022-12-14T08:55:58.505Z,89.07
2022-12-14T08:56:59.361Z,89.07
2022-12-14T08:58:00.220Z,88.55
2022-12-14T08:59:01.078Z,88.76
2022-12-14T09:00:02.887Z,88.66
2022-12-14T09:01:02.497Z,88.55
2022-12-14T09:02:03.557Z,88.28
2022-12-14T09:03:04.133Z,88.91
2022-12-14T09:04:04.510Z,89.86
2022-12-14T09:05:05.608Z,89.64
2022-12-14T09:06:05.982Z,89.22
2022-12-14T09:07:06.794Z,88.97
2022-12-14T09:08:07.663Z,89.12
2022-12-14T09:09:15.519Z,89.07
2022-12-14T09:10:10.596Z,88.66
2022-12-14T09:11:10.069Z,87.92
2022-12-14T09:12:10.873Z,88.45
2022-12-14T09:13:11.729Z,88.20
2022-12-14T09:14:12.629Z,88.20
2022-12-14T09:15:13.602Z,88.30
2022-12-14T09:16:14.028Z,88.30
2022-12-14T09:17:14.845Z,88.09
2022-12-14T09:18:15.718Z,88.09
2022-12-14T09:19:16.590Z,88.47
2022-12-14T09:20:17.600Z,88.47
2022-12-14T09:21:18.073Z,88.72
2022-12-14T09:22:18.982Z,89.77
2022-12-14T09:23:19.792Z,90.19
2022-12-14T09:24:20.654Z,90.51
2022-12-14T09:25:21.524Z,90.61
2022-12-14T09:26:22.382Z,90.61
2022-12-14T09:27:23.233Z,90.40
2022-12-14T09:28:24.116Z,90.36
2022-12-14T09:29:24.971Z,90.15
2022-12-14T09:30:27.065Z,89.84
2022-12-14T09:31:26.570Z,89.73
2022-12-14T09:32:27.394Z,89.52
2022-12-14T09:33:28.671Z,88.89
2022-12-14T09:34:29.217Z,89.00
2022-12-14T09:35:30.078Z,88.89
2022-12-14T09:36:30.949Z,88.47
2022-12-14T09:37:31.724Z,88.26
2022-12-14T09:38:32.631Z,88.57
2022-12-14T09:39:33.486Z,88.57
2022-12-14T09:40:34.603Z,87.84
2022-12-14T09:41:35.133Z,87.84
2022-12-14T09:42:35.593Z,87.74
2022-12-14T09:43:37.477Z,87.63
2022-12-14T09:44:37.302Z,88.05
2022-12-14T09:45:38.783Z,87.95
2022-12-14T09:46:39.121Z,88.62
2022-12-14T09:47:39.975Z,89.25
2022-12-14T09:48:40.831Z,89.21
2022-12-14T09:49:41.691Z,88.89
2022-12-14T09:50:42.585Z,88.57
2022-12-14T09:51:43.475Z,88.57
2022-12-14T09:52:44.305Z,88.57
2022-12-14T09:53:45.157Z,88.32
2022-12-14T09:54:46.049Z,88.22
2022-12-14T09:55:47.082Z,88.01
2022-12-14T09:56:47.441Z,87.80
2022-12-14T09:57:48.320Z,87.66
2022-12-14T09:58:49.186Z,87.55
2022-12-14T09:59:50.041Z,87.34
2022-12-14T10:00:53.699Z,87.13
2022-12-14T10:02:29.606Z,86.82
2022-12-14T10:02:53.793Z,86.68
2022-12-14T10:03:53.481Z,86.46
2022-12-14T10:04:53.870Z,86.25
2022-12-14T10:05:55.085Z,86.05
2022-12-14T10:06:55.455Z,86.15
2022-12-14T10:07:56.232Z,86.40
2022-12-14T10:08:57.086Z,86.92
2022-12-14T10:09:57.940Z,87.45
2022-12-14T10:10:59.082Z,86.88
2022-12-14T10:11:59.463Z,86.71
2022-12-14T10:13:00.318Z,86.82
2022-12-14T10:14:01.172Z,87.03
2022-12-14T10:15:02.053Z,87.13
2022-12-14T10:16:03.176Z,87.13
2022-12-14T10:17:03.559Z,86.88
2022-12-14T10:18:04.366Z,86.46
2022-12-14T10:19:05.681Z,85.94
2022-12-14T10:20:05.731Z,85.63
2022-12-14T10:21:06.595Z,85.63
2022-12-14T10:22:07.473Z,85.38
2022-12-14T10:23:08.310Z,85.06
2022-12-14T10:24:09.169Z,84.33
2022-12-14T10:25:10.044Z,84.19
2022-12-14T10:26:11.105Z,83.87
2022-12-14T10:27:11.464Z,83.73
2022-12-14T10:28:12.607Z,83.94
2022-12-14T10:29:13.058Z,83.73
2022-12-14T10:30:13.919Z,82.26
2022-12-14T10:31:14.880Z,82.58
2022-12-14T10:32:15.743Z,82.89
2022-12-14T10:33:16.599Z,83.73
2022-12-14T10:34:17.474Z,83.42
2022-12-14T10:35:18.332Z,82.82
2022-12-14T10:36:19.201Z,82.72
2022-12-14T10:37:20.071Z,82.93
2022-12-14T10:38:20.858Z,83.45
2022-12-14T10:39:21.744Z,83.77
2022-12-14T10:40:32.920Z,83.56
2022-12-14T10:41:24.348Z,83.03
2022-12-14T10:42:24.204Z,83.25
2022-12-14T10:43:25.063Z,83.14
2022-12-14T10:44:25.932Z,82.68
2022-12-14T10:45:42.706Z,82.62
2022-12-14T10:46:28.602Z,82.72
2022-12-14T10:47:28.439Z,82.89
2022-12-14T10:48:29.634Z,82.89
2022-12-14T10:49:30.183Z,82.68
2022-12-14T10:50:31.038Z,82.47
2022-12-14T10:51:32.155Z,82.79
2022-12-14T10:52:32.527Z,82.79
2022-12-14T10:53:38.738Z,82.68
2022-12-14T10:54:35.082Z,82.43
2022-12-14T10:55:34.938Z,82.23
2022-12-14T10:56:35.996Z,82.02
2022-12-14T10:57:36.320Z,81.81
2022-12-14T10:58:37.176Z,81.60
2022-12-14T10:59:42.297Z,81.56
2022-12-14T11:00:39.797Z,81.98
2022-12-14T11:01:39.821Z,81.77
2022-12-14T11:02:40.328Z,81.11
2022-12-14T11:03:40.982Z,80.79
2022-12-14T11:04:41.321Z,80.73
2022-12-14T11:05:42.188Z,81.56
2022-12-14T11:06:43.058Z,81.42
2022-12-14T11:07:43.952Z,81.11
2022-12-14T11:08:48.115Z,81.35
2022-12-14T11:09:45.257Z,81.46
2022-12-14T11:10:46.129Z,81.81
2022-12-14T11:11:47.081Z,82.23
2022-12-14T11:12:47.907Z,81.98
2022-12-14T11:13:48.762Z,81.35
2022-12-14T11:14:49.617Z,80.93
2022-12-14T11:15:50.486Z,79.89
2022-12-14T11:16:51.504Z,79.05
2022-12-14T11:17:51.926Z,78.95
2022-12-14T11:18:52.767Z,79.16
2022-12-14T11:19:53.617Z,79.75
2022-12-14T11:20:54.473Z,79.02
2022-12-14T11:21:55.565Z,78.42
2022-12-14T11:22:55.949Z,75.60
2022-12-14T11:23:56.745Z,74.94
2022-12-14T11:24:57.597Z,75.04
2022-12-14T11:25:58.455Z,75.46
2022-12-14T11:26:59.326Z,77.76
2022-12-14T11:28:00.201Z,77.97
2022-12-14T11:29:01.068Z,78.28
2022-12-14T11:30:01.922Z,78.60
2022-12-14T11:31:02.899Z,78.49
2022-12-14T11:32:03.570Z,78.60
2022-12-14T11:33:03.940Z,80.27
2022-12-14T11:34:04.781Z,80.93
2022-12-14T11:35:05.636Z,81.95
2022-12-14T11:36:06.524Z,82.05
2022-12-14T11:37:07.562Z,82.67
2022-12-14T11:38:07.936Z,82.78
2022-12-14T11:39:08.717Z,82.89
2022-12-14T11:40:09.571Z,81.63
2022-12-14T11:41:12.092Z,81.95
2022-12-14T11:42:11.007Z,82.05
2022-12-14T11:43:11.862Z,81.80
2022-12-14T11:44:12.714Z,80.96
2022-12-14T11:45:13.570Z,80.44
2022-12-14T11:46:14.529Z,80.55
2022-12-14T11:47:15.560Z,81.18
2022-12-14T11:48:15.941Z,81.63
2022-12-14T11:49:16.788Z,81.11
2022-12-14T11:50:17.650Z,79.85
2022-12-14T11:51:18.506Z,79.50
2022-12-14T11:52:19.557Z,79.50
2022-12-14T11:53:20.045Z,79.40
2022-12-14T11:54:20.817Z,79.08
2022-12-14T11:55:26.682Z,79.29
2022-12-14T11:56:23.428Z,78.94
2022-12-14T11:57:23.557Z,78.42
2022-12-14T11:58:23.915Z,78.32
2022-12-14T11:59:24.762Z,78.32
2022-12-14T12:00:25.622Z,78.07
2022-12-14T12:01:26.678Z,77.55
2022-12-14T12:02:27.267Z,77.62
2022-12-14T12:03:27.669Z,77.62
2022-12-14T12:04:28.521Z,77.45
2022-12-14T12:05:29.374Z,77.55
2022-12-14T12:06:30.224Z,77.41
2022-12-14T12:07:31.576Z,75.95
2022-12-14T12:08:32.613Z,75.85
2022-12-14T12:09:32.908Z,76.16
2022-12-14T12:10:33.760Z,76.06
2022-12-14T12:11:34.615Z,76.26
2022-12-14T12:12:35.601Z,76.37
2022-12-14T12:13:36.447Z,76.79
2022-12-14T12:14:37.309Z,77.00
2022-12-14T12:15:38.289Z,77.20
2022-12-14T12:16:39.105Z,76.79
2022-12-14T12:17:39.973Z,75.85
2022-12-14T12:18:46.292Z,75.50
2022-12-14T12:19:42.599Z,75.60
2022-12-14T12:20:42.458Z,75.71
2022-12-14T12:21:43.310Z,75.46
2022-12-14T12:22:44.172Z,75.15
2022-12-14T12:23:45.043Z,74.60
2022-12-14T12:25:16.357Z,74.25
2022-12-14T12:25:47.623Z,73.35
2022-12-14T12:26:49.774Z,73.42
2022-12-14T12:27:48.550Z,71.90
2022-12-14T12:28:48.917Z,69.76
2022-12-14T12:29:49.769Z,68.17
2022-12-14T12:30:50.749Z,66.28
2022-12-14T12:31:51.605Z,65.14
2022-12-14T12:32:52.468Z,66.14
2022-12-14T12:33:53.327Z,67.20
2022-12-14T12:34:54.180Z,66.75
2022-12-14T12:35:55.035Z,66.83
2022-12-14T12:37:25.196Z,64.23
2022-12-14T12:37:57.644Z,62.25
2022-12-14T12:38:57.527Z,60.75
2022-12-14T12:39:58.375Z,59.45
2022-12-14T12:40:59.273Z,58.40
2022-12-14T12:42:03.576Z,57.57
2022-12-14T12:43:01.886Z,57.34
2022-12-14T12:44:01.739Z,54.90
2022-12-14T12:45:02.594Z,53.61
2022-12-14T12:46:03.557Z,53.00
2022-12-14T12:47:24.319Z,53.17
2022-12-14T12:48:06.622Z,52.41
2022-12-14T12:49:05.912Z,52.00
2022-12-14T12:50:07.036Z,52.00
2022-12-14T12:51:07.388Z,50.85
2022-12-14T12:52:08.264Z,50.95
2022-12-14T12:53:09.127Z,50.31
2022-12-14T12:54:10.004Z,49.88
2022-12-14T12:55:10.822Z,50.01
2022-12-14T12:56:11.688Z,50.01
2022-12-14T12:57:12.553Z,48.93
2022-12-14T12:58:13.548Z,48.85
2022-12-14T12:59:13.913Z,48.83
2022-12-14T13:00:14.786Z,47.89
2022-12-14T13:01:15.793Z,47.60
2022-12-14T13:02:16.444Z,47.89
2022-12-14T13:03:17.177Z,47.35